Time;durP1;ratioP1;P1;durP2;ratioP2;P2;SDS_P1;SDS_P2;PMS_P1;PMS_P2;Temp;Humidity;BMP_temperature;BMP_pressure;BME280_temperature;BME280_humidity;BME280_pressure;Samples;Min_cycle;Max_cycle;Signal;HPM_P1;HPM_P2
2021/04/03 00:00:48;;;;;;;5.67;4.77;;;;;;;;;;5055503;28;20182;-42
2021/04/03 00:03:15;;;;;;;6.00;5.50;;;;;;;;;;5049743;28;20184;-43
2021/04/03 00:05:40;;;;;;;5.47;5.07;;;;;;;;;;5048947;28;20603;-43
2021/04/03 00:08:06;;;;;;;5.80;5.27;;;;;;;;;;5049470;28;20608;-43
2021/04/03 00:10:40;;;;;;;6.03;5.43;;;;;;;;;;5049711;28;20203;-43
2021/04/03 00:13:05;;;;;;;5.00;4.60;;;;;;;;;;5049819;28;20259;-43
2021/04/03 00:15:31;;;;;;;6.97;5.33;;;;;;;;;;5048904;28;20839;-42
2021/04/03 00:17:56;;;;;;;5.87;5.03;;;;;;;;;;5048923;28;20180;-43
2021/04/03 00:20:23;;;;;;;4.90;4.27;;;;;;;;;;5049028;28;20200;-42
2021/04/03 00:22:48;;;;;;;4.23;3.83;;;;;;;;;;5048919;28;20174;-42
2021/04/03 00:25:14;;;;;;;3.90;3.60;;;;;;;;;;5049318;28;20710;-42
2021/04/03 00:27:40;;;;;;;4.67;4.27;;;;;;;;;;5048937;28;20639;-42
2021/04/03 00:30:14;;;;;;;3.57;3.27;;;;;;;;;;5047408;28;20633;-43
2021/04/03 00:32:50;;;;;;;3.90;3.60;;;;;;;;;;5048562;28;20654;-43
2021/04/03 00:35:17;;;;;;;3.93;3.53;;;;;;;;;;5049112;28;20748;-42
2021/04/03 00:37:42;;;;;;;5.50;3.60;;;;;;;;;;5048887;28;20599;-42
2021/04/03 00:40:37;;;;;;;4.23;3.53;;;;;;;;;;5048234;28;20970;-43
2021/04/03 00:43:04;;;;;;;3.90;3.50;;;;;;;;;;5038019;28;20185;-43
2021/04/03 00:45:29;;;;;;;4.33;3.70;;;;;;;;;;5048102;28;20607;-44
2021/04/03 00:47:55;;;;;;;4.30;3.90;;;;;;;;;;5048574;28;20594;-44
2021/04/03 00:50:22;;;;;;;6.50;5.03;;;;;;;;;;5048744;28;20587;-43
2021/04/03 00:52:47;;;;;;;4.30;3.90;;;;;;;;;;5048791;28;20176;-44
2021/04/03 00:55:13;;;;;;;4.17;3.77;;;;;;;;;;5048253;28;21009;-42
2021/04/03 00:57:38;;;;;;;4.47;4.07;;;;;;;;;;5048762;28;20211;-43
2021/04/03 01:00:04;;;;;;;4.47;4.13;;;;;;;;;;5048215;28;20203;-41
2021/04/03 01:02:30;;;;;;;4.17;3.80;;;;;;;;;;5047730;28;20607;-42
2021/04/03 01:04:55;;;;;;;4.37;4.03;;;;;;;;;;5047947;28;20748;-41
2021/04/03 01:07:20;;;;;;;4.30;3.97;;;;;;;;;;5048203;28;20188;-42
2021/04/03 01:09:45;;;;;;;7.23;5.40;;;;;;;;;;5047994;28;20747;-42
2021/04/03 01:12:35;;;;;;;4.60;3.93;;;;;;;;;;5047601;28;20214;-42
2021/04/03 01:15:03;;;;;;;4.27;3.43;;;;;;;;;;5048493;28;20199;-41
2021/04/03 01:17:40;;;;;;;5.90;4.10;;;;;;;;;;5047654;28;20706;-43
2021/04/03 01:20:18;;;;;;;6.30;4.23;;;;;;;;;;5048176;28;20629;-43
2021/04/03 01:22:56;;;;;;;5.40;4.40;;;;;;;;;;5047937;28;20614;-42
2021/04/03 01:25:28;;;;;;;4.93;4.50;;;;;;;;;;5048130;28;20614;-42
2021/04/03 01:28:01;;;;;;;5.60;4.40;;;;;;;;;;5047200;28;20610;-43
2021/04/03 01:30:27;;;;;;;4.93;4.43;;;;;;;;;;5039671;28;20641;-42
2021/04/03 01:33:01;;;;;;;5.60;4.60;;;;;;;;;;5047741;28;20646;-43
2021/04/03 01:35:29;;;;;;;5.33;4.90;;;;;;;;;;5048064;28;20195;-42
2021/04/03 01:37:58;;;;;;;5.37;4.90;;;;;;;;;;5047666;28;20634;-43
2021/04/03 01:40:24;;;;;;;5.30;4.80;;;;;;;;;;5051556;28;20834;-43
2021/04/03 01:42:52;;;;;;;5.67;5.07;;;;;;;;;;5047857;28;21105;-42
2021/04/03 01:45:19;;;;;;;5.17;4.67;;;;;;;;;;5047204;28;20608;-42
2021/04/03 01:47:45;;;;;;;5.57;5.07;;;;;;;;;;5047172;28;20614;-43
2021/04/03 01:50:12;;;;;;;5.00;4.50;;;;;;;;;;5047948;28;20603;-43
2021/04/03 01:52:38;;;;;;;7.23;6.00;;;;;;;;;;5047621;28;20599;-43
2021/04/03 01:55:06;;;;;;;6.10;5.50;;;;;;;;;;5046377;28;20691;-43
2021/04/03 01:57:32;;;;;;;6.10;5.50;;;;;;;;;;5047301;28;20710;-43
2021/04/03 01:59:57;;;;;;;6.10;5.27;;;;;;;;;;5047731;28;20950;-43
2021/04/03 02:02:23;;;;;;;8.03;5.70;;;;;;;;;;5046865;28;20689;-43
2021/04/03 02:04:49;;;;;;;11.03;7.10;;;;;;;;;;5047583;28;20432;-44
2021/04/03 02:07:18;;;;;;;8.60;5.90;;;;;;;;;;5047940;28;20180;-43
2021/04/03 02:09:47;;;;;;;8.10;7.30;;;;;;;;;;5047341;28;20182;-42
2021/04/03 02:12:13;;;;;;;8.83;6.60;;;;;;;;;;5047283;28;20604;-43
2021/04/03 02:14:39;;;;;;;8.70;6.87;;;;;;;;;;5046815;28;21209;-42
2021/04/03 02:17:05;;;;;;;7.40;6.60;;;;;;;;;;5049549;28;20177;-43
2021/04/03 02:19:30;;;;;;;8.03;7.27;;;;;;;;;;5050975;28;20185;-43
2021/04/03 02:21:55;;;;;;;10.33;7.40;;;;;;;;;;5051401;28;20965;-43
2021/04/03 02:24:21;;;;;;;10.80;7.07;;;;;;;;;;5050911;28;20325;-42
2021/04/03 02:26:46;;;;;;;8.85;7.80;;;;;;;;;;5051311;28;20355;-42
2021/04/03 02:29:11;;;;;;;9.40;7.60;;;;;;;;;;5050689;28;20173;-42
2021/04/03 02:31:36;;;;;;;14.40;8.23;;;;;;;;;;5050299;28;20198;-43
2021/04/03 02:34:03;;;;;;;13.27;8.73;;;;;;;;;;5050820;28;20174;-42
2021/04/03 02:36:28;;;;;;;11.10;8.20;;;;;;;;;;5050571;28;20207;-43
2021/04/03 02:38:53;;;;;;;11.95;8.20;;;;;;;;;;5050259;28;20610;-42
2021/04/03 02:41:19;;;;;;;9.52;8.13;;;;;;;;;;5051184;28;20198;-42
2021/04/03 02:43:48;;;;;;;14.47;9.30;;;;;;;;;;5050978;28;20263;-43
2021/04/03 02:46:15;;;;;;;15.93;8.77;;;;;;;;;;5044837;28;20610;-43
2021/04/03 02:48:43;;;;;;;12.80;9.60;;;;;;;;;;5050216;28;20700;-42
2021/04/03 02:51:10;;;;;;;15.30;8.97;;;;;;;;;;5044888;28;20672;-43
2021/04/03 02:53:36;;;;;;;12.83;8.60;;;;;;;;;;5050767;28;20692;-43
2021/04/03 02:56:03;;;;;;;13.30;9.53;;;;;;;;;;5049922;28;20705;-42
2021/04/03 02:58:31;;;;;;;11.87;9.37;;;;;;;;;;5050139;28;20932;-42
2021/04/03 03:00:57;;;;;;;10.40;9.10;;;;;;;;;;5049658;28;20599;-43
2021/04/03 03:03:23;;;;;;;11.50;8.70;;;;;;;;;;5050852;28;20604;-43
2021/04/03 03:05:50;;;;;;;15.60;10.77;;;;;;;;;;5050199;28;20665;-42
2021/04/03 03:08:15;;;;;;;15.37;10.43;;;;;;;;;;5049752;28;20708;-43
2021/04/03 03:10:42;;;;;;;13.90;9.47;;;;;;;;;;5050838;28;20689;-41
2021/04/03 03:13:08;;;;;;;17.60;9.73;;;;;;;;;;5050391;28;20525;-42
2021/04/03 03:15:33;;;;;;;11.43;9.47;;;;;;;;;;5050164;28;20657;-42
2021/04/03 03:17:59;;;;;;;16.17;11.10;;;;;;;;;;5050204;28;20176;-42
2021/04/03 03:20:24;;;;;;;11.50;8.70;;;;;;;;;;5050938;28;20224;-42
2021/04/03 03:22:50;;;;;;;15.17;11.27;;;;;;;;;;5049821;28;20590;-42
2021/04/03 03:25:15;;;;;;;18.30;11.10;;;;;;;;;;5050563;28;20210;-41
2021/04/03 03:27:42;;;;;;;13.90;11.00;;;;;;;;;;5049306;28;20208;-42
2021/04/03 03:30:08;;;;;;;14.67;10.30;;;;;;;;;;5050066;28;20728;-41
2021/04/03 03:32:33;;;;;;;13.47;10.13;;;;;;;;;;5049957;28;20689;-42
2021/04/03 03:34:58;;;;;;;16.17;10.97;;;;;;;;;;5049393;28;20231;-42
2021/04/03 03:37:24;;;;;;;18.10;10.87;;;;;;;;;;5050069;28;20177;-42
2021/04/03 03:39:51;;;;;;;16.40;10.93;;;;;;;;;;5049544;28;20177;-42
2021/04/03 03:42:16;;;;;;;18.27;11.57;;;;;;;;;;5050475;28;20665;-42
2021/04/03 03:44:41;;;;;;;17.63;11.80;;;;;;;;;;5049825;28;20610;-43
2021/04/03 03:47:06;;;;;;;18.10;10.87;;;;;;;;;;5049664;28;20227;-43
2021/04/03 03:49:31;;;;;;;14.47;10.53;;;;;;;;;;5049902;28;20210;-42
2021/04/03 03:51:57;;;;;;;16.63;11.17;;;;;;;;;;5049746;28;20227;-42
2021/04/03 03:54:22;;;;;;;16.83;11.13;;;;;;;;;;5048829;28;20224;-43
2021/04/03 03:56:47;;;;;;;20.43;12.33;;;;;;;;;;5049556;28;20179;-42
2021/04/03 03:59:12;;;;;;;15.30;11.00;;;;;;;;;;5049416;28;20198;-43
2021/04/03 04:01:37;;;;;;;15.10;10.13;;;;;;;;;;5049427;28;20203;-42
2021/04/03 04:04:03;;;;;;;19.55;11.70;;;;;;;;;;5049763;28;20181;-42
2021/04/03 04:06:28;;;;;;;19.47;12.10;;;;;;;;;;5049561;28;20201;-42
2021/04/03 04:08:54;;;;;;;21.42;11.10;;;;;;;;;;5048665;28;20176;-42
2021/04/03 04:11:19;;;;;;;16.07;11.77;;;;;;;;;;5049178;28;20179;-45
2021/04/03 04:13:44;;;;;;;18.70;12.50;;;;;;;;;;5057674;28;20613;-43
2021/04/03 04:16:10;;;;;;;16.60;11.30;;;;;;;;;;5048911;28;20234;-42
2021/04/03 04:18:35;;;;;;;17.33;11.03;;;;;;;;;;5049043;28;20204;-42
2021/04/03 04:21:00;;;;;;;15.07;10.97;;;;;;;;;;5049368;28;20257;-42
2021/04/03 04:23:25;;;;;;;23.50;12.00;;;;;;;;;;5048847;28;20796;-43
2021/04/03 04:25:50;;;;;;;14.90;10.17;;;;;;;;;;5048748;28;20199;-42
2021/04/03 04:28:16;;;;;;;16.53;11.10;;;;;;;;;;5048550;28;20259;-43
2021/04/03 04:30:41;;;;;;;16.00;11.07;;;;;;;;;;5048923;28;20185;-42
2021/04/03 04:33:06;;;;;;;14.27;10.63;;;;;;;;;;5048953;28;20720;-43
2021/04/03 04:35:31;;;;;;;16.10;11.70;;;;;;;;;;5057492;28;20211;-43
2021/04/03 04:37:56;;;;;;;12.30;10.50;;;;;;;;;;5048517;28;20174;-42
2021/04/03 04:40:21;;;;;;;13.70;10.33;;;;;;;;;;5047386;28;20246;-43
2021/04/03 04:42:48;;;;;;;13.07;10.13;;;;;;;;;;5048702;28;20171;-43
2021/04/03 04:45:13;;;;;;;14.27;10.40;;;;;;;;;;5048714;28;20180;-42
2021/04/03 04:47:38;;;;;;;15.30;10.60;;;;;;;;;;5048675;28;20605;-42
2021/04/03 04:50:04;;;;;;;16.47;11.40;;;;;;;;;;5048104;28;20200;-43
2021/04/03 04:52:29;;;;;;;14.93;11.23;;;;;;;;;;5048226;28;20189;-41
2021/04/03 04:54:55;;;;;;;13.03;9.87;;;;;;;;;;5047883;28;20229;-43
2021/04/03 04:57:20;;;;;;;17.03;11.63;;;;;;;;;;5048001;28;20244;-42
2021/04/03 04:59:45;;;;;;;13.70;11.30;;;;;;;;;;5047712;28;20211;-43
2021/04/03 05:02:10;;;;;;;18.35;11.00;;;;;;;;;;5047876;28;20258;-43
2021/04/03 05:04:35;;;;;;;23.73;11.30;;;;;;;;;;5048680;28;20615;-48
2021/04/03 05:07:00;;;;;;;23.77;13.18;;;;;;;;;;5048180;28;20184;-44
2021/04/03 05:09:26;;;;;;;14.70;10.50;;;;;;;;;;5047531;28;20186;-42
2021/04/03 05:11:51;;;;;;;22.97;11.50;;;;;;;;;;5048426;28;20173;-42
2021/04/03 05:14:16;;;;;;;15.32;12.27;;;;;;;;;;5048340;28;20549;-43
2021/04/03 05:16:41;;;;;;;17.87;12.10;;;;;;;;;;5047986;28;20547;-43
2021/04/03 05:19:06;;;;;;;15.80;11.50;;;;;;;;;;5049690;28;20196;-42
2021/04/03 05:21:31;;;;;;;17.67;12.33;;;;;;;;;;5048778;28;20306;-41
2021/04/03 05:23:57;;;;;;;21.02;12.38;;;;;;;;;;5047570;28;20668;-43
2021/04/03 05:26:22;;;;;;;12.90;11.13;;;;;;;;;;5047607;28;20175;-42
2021/04/03 05:28:47;;;;;;;18.17;12.57;;;;;;;;;;5048431;28;20169;-42
2021/04/03 05:31:12;;;;;;;17.77;11.67;;;;;;;;;;5047095;28;20184;-42
2021/04/03 05:33:37;;;;;;;20.57;11.83;;;;;;;;;;5047761;28;20227;-42
2021/04/03 05:36:03;;;;;;;17.33;12.13;;;;;;;;;;5047649;28;20584;-44
2021/04/03 05:38:28;;;;;;;15.77;11.50;;;;;;;;;;5047211;28;20230;-42
2021/04/03 05:40:53;;;;;;;13.13;11.63;;;;;;;;;;5047372;28;20203;-41
2021/04/03 05:43:19;;;;;;;15.00;10.17;;;;;;;;;;5045706;28;20186;-43
2021/04/03 05:45:45;;;;;;;16.93;12.37;;;;;;;;;;5048426;28;20182;-43
2021/04/03 05:48:11;;;;;;;20.07;11.50;;;;;;;;;;5052002;28;20207;-42
2021/04/03 05:50:36;;;;;;;18.63;12.00;;;;;;;;;;5044442;28;21140;-43
2021/04/03 05:53:02;;;;;;;14.30;12.40;;;;;;;;;;5045693;28;20176;-41
2021/04/03 05:55:27;;;;;;;16.73;12.13;;;;;;;;;;5042084;28;20227;-42
2021/04/03 05:57:52;;;;;;;16.03;11.37;;;;;;;;;;5044105;28;21324;-42
2021/04/03 06:00:18;;;;;;;19.50;12.40;;;;;;;;;;5046137;28;20177;-41
2021/04/03 06:02:43;;;;;;;18.80;11.60;;;;;;;;;;5050285;28;20617;-43
2021/04/03 06:05:09;;;;;;;19.73;11.43;;;;;;;;;;5054833;28;20207;-41
2021/04/03 06:07:34;;;;;;;18.50;11.40;;;;;;;;;;5047095;28;20601;-43
2021/04/03 06:10:00;;;;;;;17.27;10.73;;;;;;;;;;5047037;28;20727;-43
2021/04/03 06:12:41;;;;;;;17.80;11.27;;;;;;;;;;5047819;28;20690;-42
2021/04/03 06:15:07;;;;;;;16.40;11.57;;;;;;;;;;5046513;28;20638;-43
2021/04/03 06:17:32;;;;;;;16.97;11.07;;;;;;;;;;5044636;28;20733;-42
2021/04/03 06:19:58;;;;;;;19.27;11.27;;;;;;;;;;5044767;28;20261;-43
2021/04/03 06:22:23;;;;;;;14.90;11.30;;;;;;;;;;5043252;28;20238;-43
2021/04/03 06:25:01;;;;;;;18.80;10.70;;;;;;;;;;5044082;28;20171;-45
2021/04/03 06:27:26;;;;;;;20.50;12.60;;;;;;;;;;5045012;28;20261;-42
2021/04/03 06:29:52;;;;;;;23.60;12.47;;;;;;;;;;5045818;28;20699;-41
2021/04/03 06:32:18;;;;;;;24.00;12.30;;;;;;;;;;5047473;28;20503;-43
2021/04/03 06:34:47;;;;;;;14.80;10.33;;;;;;;;;;5046747;28;20204;-43
2021/04/03 06:37:13;;;;;;;18.40;11.50;;;;;;;;;;5046915;28;20607;-43
2021/04/03 06:39:56;;;;;;;17.03;10.90;;;;;;;;;;5045621;28;20601;-42
2021/04/03 06:42:34;;;;;;;15.20;11.40;;;;;;;;;;5046145;28;20182;-42
2021/04/03 06:45:16;;;;;;;13.63;11.87;;;;;;;;;;5047004;28;20674;-42
2021/04/03 06:47:42;;;;;;;12.43;10.43;;;;;;;;;;5044830;28;21168;-42
2021/04/03 06:50:07;;;;;;;14.17;10.50;;;;;;;;;;5046413;28;20703;-42
2021/04/03 06:52:33;;;;;;;16.93;11.17;;;;;;;;;;5040824;28;20650;-42
2021/04/03 06:54:58;;;;;;;17.93;10.60;;;;;;;;;;5043471;28;20303;-42
2021/04/03 06:57:24;;;;;;;15.03;11.03;;;;;;;;;;5045107;28;20253;-42
2021/04/03 06:59:49;;;;;;;15.53;10.30;;;;;;;;;;5046926;28;20814;-42
2021/04/03 07:02:16;;;;;;;18.47;10.90;;;;;;;;;;5044685;28;20186;-42
2021/04/03 07:04:43;;;;;;;16.73;10.60;;;;;;;;;;5047052;28;20266;-42
2021/04/03 07:07:08;;;;;;;14.13;9.90;;;;;;;;;;5048563;28;20600;-41
2021/04/03 07:09:34;;;;;;;17.07;11.20;;;;;;;;;;5050324;28;20597;-41
2021/04/03 07:11:59;;;;;;;17.63;11.70;;;;;;;;;;5048298;28;21125;-41
2021/04/03 07:14:25;;;;;;;15.93;11.37;;;;;;;;;;5050124;28;20599;-41
2021/04/03 07:16:50;;;;;;;13.43;10.30;;;;;;;;;;5050730;28;20196;-42
2021/04/03 07:19:16;;;;;;;12.67;10.50;;;;;;;;;;5049184;28;20177;-42
2021/04/03 07:21:42;;;;;;;12.40;10.30;;;;;;;;;;5047642;28;20601;-42
2021/04/03 07:24:08;;;;;;;14.73;10.33;;;;;;;;;;5050509;28;20183;-42
2021/04/03 07:26:35;;;;;;;15.77;10.90;;;;;;;;;;5049564;28;20232;-42
2021/04/03 07:29:00;;;;;;;14.00;10.10;;;;;;;;;;5048987;28;20692;-42
2021/04/03 07:31:37;;;;;;;16.43;11.40;;;;;;;;;;5049841;28;20751;-42
2021/04/03 07:34:02;;;;;;;17.87;11.40;;;;;;;;;;5050313;28;20178;-42
2021/04/03 07:36:34;;;;;;;14.57;11.30;;;;;;;;;;5049886;28;21022;-42
2021/04/03 07:38:59;;;;;;;13.93;9.90;;;;;;;;;;5049867;28;20187;-42
2021/04/03 07:41:25;;;;;;;16.60;12.27;;;;;;;;;;5048049;28;20621;-42
2021/04/03 07:43:50;;;;;;;16.20;11.07;;;;;;;;;;5040919;28;20213;-42
2021/04/03 07:46:25;;;;;;;19.30;11.80;;;;;;;;;;5040441;28;20180;-49
2021/04/03 07:48:52;;;;;;;17.63;12.30;;;;;;;;;;5043796;28;20928;-42
2021/04/03 07:51:20;;;;;;;11.83;10.53;;;;;;;;;;5048345;28;20622;-42
2021/04/03 07:53:46;;;;;;;17.60;10.50;;;;;;;;;;5048284;28;20614;-42
2021/04/03 07:56:12;;;;;;;13.43;10.47;;;;;;;;;;5047972;28;20661;-43
2021/04/03 07:58:45;;;;;;;17.50;10.93;;;;;;;;;;5048781;28;20177;-42
2021/04/03 08:01:10;;;;;;;13.70;9.63;;;;;;;;;;5042919;28;20598;-42
2021/04/03 08:03:35;;;;;;;10.90;9.80;;;;;;;;;;5046858;28;20594;-42
2021/04/03 08:06:02;;;;;;;13.73;10.50;;;;;;;;;;5041200;28;20180;-42
2021/04/03 08:08:28;;;;;;;13.97;9.97;;;;;;;;;;5044640;28;20201;-42
2021/04/03 08:11:11;;;;;;;14.10;10.93;;;;;;;;;;5048703;28;20624;-43
2021/04/03 08:13:40;;;;;;;13.70;11.57;;;;;;;;;;5049759;28;20653;-43
2021/04/03 08:16:06;;;;;;;12.30;10.47;;;;;;;;;;5049209;28;20638;-43
2021/04/03 08:18:33;;;;;;;11.00;8.60;;;;;;;;;;5049274;28;20596;-44
2021/04/03 08:20:58;;;;;;;10.63;9.60;;;;;;;;;;5048698;28;20696;-41
2021/04/03 08:23:31;;;;;;;10.00;9.00;;;;;;;;;;5049082;28;20602;-42
2021/04/03 08:25:56;;;;;;;13.10;9.70;;;;;;;;;;5049164;28;20171;-44
2021/04/03 08:28:21;;;;;;;11.57;9.80;;;;;;;;;;5049015;28;20716;-41
2021/04/03 08:30:47;;;;;;;14.73;10.17;;;;;;;;;;5048559;28;20204;-44
2021/04/03 08:33:13;;;;;;;13.20;10.53;;;;;;;;;;5048772;28;20185;-43
2021/04/03 08:35:40;;;;;;;15.90;10.17;;;;;;;;;;5048785;28;20260;-40
2021/04/03 08:38:12;;;;;;;14.83;10.90;;;;;;;;;;5048068;28;20610;-41
2021/04/03 08:40:38;;;;;;;13.60;10.47;;;;;;;;;;5047855;28;20618;-42
2021/04/03 08:43:03;;;;;;;13.73;11.10;;;;;;;;;;5048686;28;20692;-43
2021/04/03 08:45:39;;;;;;;17.73;11.53;;;;;;;;;;5048551;28;20188;-42
2021/04/03 08:48:08;;;;;;;15.50;11.47;;;;;;;;;;5048447;28;20198;-42
2021/04/03 08:50:34;;;;;;;17.20;12.10;;;;;;;;;;5048315;28;20623;-41
2021/04/03 08:53:00;;;;;;;18.20;13.50;;;;;;;;;;5048637;28;20716;-42
2021/04/03 08:55:26;;;;;;;15.30;13.17;;;;;;;;;;5048571;28;20227;-42
2021/04/03 08:57:51;;;;;;;15.47;11.90;;;;;;;;;;5048993;28;20679;-42
2021/04/03 09:00:18;;;;;;;16.00;12.97;;;;;;;;;;5047507;28;20192;-42
2021/04/03 09:02:43;;;;;;;12.43;10.43;;;;;;;;;;5048421;28;20576;-42
2021/04/03 09:05:09;;;;;;;13.30;11.47;;;;;;;;;;5047985;28;20715;-42
2021/04/03 09:07:35;;;;;;;11.80;10.13;;;;;;;;;;5048089;28;20184;-42
2021/04/03 09:10:11;;;;;;;12.27;9.77;;;;;;;;;;5048131;28;20183;-42
2021/04/03 09:12:36;;;;;;;14.50;8.30;;;;;;;;;;5047876;28;20688;-42
2021/04/03 09:15:02;;;;;;;9.17;7.00;;;;;;;;;;5047633;28;21287;-42
2021/04/03 09:17:28;;;;;;;7.80;6.87;;;;;;;;;;5048286;28;20179;-42
2021/04/03 09:20:14;;;;;;;9.23;6.23;;;;;;;;;;5046776;28;20601;-42
2021/04/03 09:22:40;;;;;;;5.70;5.10;;;;;;;;;;5047229;28;20188;-42
2021/04/03 09:25:09;;;;;;;6.97;6.27;;;;;;;;;;5046561;28;20640;-41
2021/04/03 09:27:35;;;;;;;7.70;6.20;;;;;;;;;;5045763;28;20645;-43
2021/04/03 09:30:09;;;;;;;7.87;6.60;;;;;;;;;;5046896;28;20644;-42
2021/04/03 09:32:43;;;;;;;14.27;7.10;;;;;;;;;;5047358;28;20178;-45
2021/04/03 09:35:09;;;;;;;7.27;6.57;;;;;;;;;;5045040;28;20664;-43
2021/04/03 09:37:35;;;;;;;8.93;6.87;;;;;;;;;;5045949;28;20598;-42
2021/04/03 09:40:00;;;;;;;10.37;6.90;;;;;;;;;;5043864;28;21147;-43
2021/04/03 09:42:27;;;;;;;11.03;6.70;;;;;;;;;;5044072;28;20622;-44
2021/04/03 09:44:54;;;;;;;9.37;7.10;;;;;;;;;;5046791;28;20186;-42
2021/04/03 09:47:20;;;;;;;11.60;7.43;;;;;;;;;;5047733;28;20642;-42
2021/04/03 09:49:45;;;;;;;9.57;8.10;;;;;;;;;;5041032;28;20630;-42
2021/04/03 09:52:13;;;;;;;9.27;8.17;;;;;;;;;;5039374;28;20177;-42
2021/04/03 09:54:38;;;;;;;11.40;7.97;;;;;;;;;;5047264;28;20298;-41
2021/04/03 09:57:04;;;;;;;9.98;7.53;;;;;;;;;;5047146;28;20610;-41
2021/04/03 09:59:29;;;;;;;9.77;7.33;;;;;;;;;;5047523;28;20609;-42
2021/04/03 10:01:55;;;;;;;11.13;8.10;;;;;;;;;;5046955;28;20550;-42
2021/04/03 10:04:20;;;;;;;7.73;7.03;;;;;;;;;;5045732;28;20187;-42
2021/04/03 10:06:48;;;;;;;8.10;5.87;;;;;;;;;;5046855;28;20652;-42
2021/04/03 10:09:14;;;;;;;6.60;5.97;;;;;;;;;;5039398;28;20185;-42
2021/04/03 10:11:39;;;;;;;7.18;5.07;;;;;;;;;;5047582;28;20604;-44
2021/04/03 10:14:04;;;;;;;9.25;6.20;;;;;;;;;;5043466;28;20196;-43
2021/04/03 10:16:29;;;;;;;8.50;5.80;;;;;;;;;;5045189;28;20401;-43
2021/04/03 10:18:54;;;;;;;6.80;6.10;;;;;;;;;;5037814;28;20178;-42
2021/04/03 10:21:20;;;;;;;7.63;5.97;;;;;;;;;;5041735;28;20289;-43
2021/04/03 10:23:45;;;;;;;8.97;5.30;;;;;;;;;;5043426;28;20171;-42
2021/04/03 10:26:10;;;;;;;7.97;6.00;;;;;;;;;;5040066;28;20192;-43
2021/04/03 10:28:35;;;;;;;7.63;5.30;;;;;;;;;;5044609;28;20703;-43
2021/04/03 10:31:01;;;;;;;7.78;5.47;;;;;;;;;;5046530;28;20635;-43
2021/04/03 10:33:26;;;;;;;8.03;5.00;;;;;;;;;;5043754;28;20180;-44
2021/04/03 10:35:51;;;;;;;3.80;3.35;;;;;;;;;;5043957;28;20292;-43
2021/04/03 10:38:16;;;;;;;4.90;3.07;;;;;;;;;;5053215;28;20190;-43
2021/04/03 10:40:41;;;;;;;4.00;3.60;;;;;;;;;;5050159;28;20247;-43
2021/04/03 10:43:07;;;;;;;4.60;3.30;;;;;;;;;;5050144;28;20593;-43
2021/04/03 10:45:32;;;;;;;4.70;3.50;;;;;;;;;;5049708;28;20288;-49
2021/04/03 10:47:57;;;;;;;4.30;2.87;;;;;;;;;;5046855;28;20186;-44
2021/04/03 10:50:22;;;;;;;3.03;2.73;;;;;;;;;;5046551;28;20197;-42
2021/04/03 10:52:47;;;;;;;4.37;3.00;;;;;;;;;;5047456;28;20183;-43
2021/04/03 10:55:13;;;;;;;3.83;2.90;;;;;;;;;;5046330;28;20218;-42
2021/04/03 10:57:38;;;;;;;3.53;2.87;;;;;;;;;;5044549;28;20173;-41
2021/04/03 11:00:04;;;;;;;3.17;2.87;;;;;;;;;;5037906;28;20192;-43
2021/04/03 11:02:29;;;;;;;4.20;3.10;;;;;;;;;;5046116;28;20224;-43
2021/04/03 11:04:54;;;;;;;3.37;2.83;;;;;;;;;;5039395;28;20184;-42
2021/04/03 11:07:19;;;;;;;2.95;2.75;;;;;;;;;;5037790;28;20688;-42
2021/04/03 11:09:44;;;;;;;3.77;2.80;;;;;;;;;;5047653;28;20220;-42
2021/04/03 11:12:11;;;;;;;2.77;2.57;;;;;;;;;;5040167;28;20253;-42
2021/04/03 11:14:36;;;;;;;4.17;3.20;;;;;;;;;;5047043;28;20186;-42
2021/04/03 11:17:01;;;;;;;5.37;3.33;;;;;;;;;;5046585;28;20654;-42
2021/04/03 11:19:26;;;;;;;5.17;3.30;;;;;;;;;;5046574;28;20664;-43
2021/04/03 11:21:51;;;;;;;4.00;2.83;;;;;;;;;;5046444;28;20597;-42
2021/04/03 11:24:17;;;;;;;3.03;2.40;;;;;;;;;;5046221;28;20166;-42
2021/04/03 11:26:42;;;;;;;2.60;2.10;;;;;;;;;;5044008;28;20178;-43
2021/04/03 11:29:07;;;;;;;3.83;2.47;;;;;;;;;;5044746;28;20209;-43
2021/04/03 11:31:32;;;;;;;3.50;1.90;;;;;;;;;;5038902;28;20248;-42
2021/04/03 11:33:58;;;;;;;1.90;1.70;;;;;;;;;;5043525;28;20178;-43
2021/04/03 11:36:23;;;;;;;1.70;1.60;;;;;;;;;;5042896;28;20240;-42
2021/04/03 11:38:48;;;;;;;2.97;1.97;;;;;;;;;;5046397;28;20179;-43
2021/04/03 11:41:13;;;;;;;1.70;1.60;;;;;;;;;;5046821;28;20206;-43
2021/04/03 11:43:38;;;;;;;2.40;1.67;;;;;;;;;;5048314;28;20199;-43
2021/04/03 11:46:04;;;;;;;1.70;1.60;;;;;;;;;;5046639;28;20197;-43
2021/04/03 11:48:29;;;;;;;1.60;1.50;;;;;;;;;;5048728;28;20189;-43
2021/04/03 11:50:54;;;;;;;2.83;1.77;;;;;;;;;;5048728;28;20659;-42
2021/04/03 11:53:19;;;;;;;3.20;2.10;;;;;;;;;;5048442;28;20209;-43
2021/04/03 11:55:44;;;;;;;4.77;1.90;;;;;;;;;;5048001;28;20305;-43
2021/04/03 11:58:10;;;;;;;2.53;1.80;;;;;;;;;;5048619;28;20179;-43
2021/04/03 12:00:35;;;;;;;3.00;1.87;;;;;;;;;;5048375;28;20191;-43
2021/04/03 12:03:00;;;;;;;1.90;1.80;;;;;;;;;;5048643;28;20363;-43
2021/04/03 12:05:25;;;;;;;2.23;1.80;;;;;;;;;;5048280;28;20218;-42
2021/04/03 12:07:51;;;;;;;2.40;2.20;;;;;;;;;;5040350;28;20190;-42
2021/04/03 12:10:16;;;;;;;1.93;1.77;;;;;;;;;;5047864;28;20175;-42
2021/04/03 12:12:42;;;;;;;2.23;1.70;;;;;;;;;;5048047;28;20178;-42
2021/04/03 12:15:08;;;;;;;3.37;1.97;;;;;;;;;;5048230;28;20199;-43
2021/04/03 12:17:33;;;;;;;4.00;1.83;;;;;;;;;;5048709;28;20182;-43
2021/04/03 12:19:58;;;;;;;3.57;2.50;;;;;;;;;;5047810;28;20605;-41
2021/04/03 12:22:24;;;;;;;2.50;2.10;;;;;;;;;;5048323;28;20201;-42
2021/04/03 12:24:49;;;;;;;2.22;1.80;;;;;;;;;;5055692;28;20181;-41
2021/04/03 12:27:14;;;;;;;2.13;1.70;;;;;;;;;;5048395;28;20185;-41
2021/04/03 12:29:39;;;;;;;3.47;1.90;;;;;;;;;;5055025;28;20266;-42
2021/04/03 12:32:04;;;;;;;3.88;1.90;;;;;;;;;;5046645;28;20639;-42
2021/04/03 12:34:30;;;;;;;3.90;1.93;;;;;;;;;;5049329;28;20657;-42
2021/04/03 12:36:55;;;;;;;2.28;1.65;;;;;;;;;;5048089;28;20207;-42
2021/04/03 12:39:20;;;;;;;2.60;1.93;;;;;;;;;;5049719;28;20241;-42
2021/04/03 12:41:45;;;;;;;1.52;1.40;;;;;;;;;;5047713;28;20199;-42
2021/04/03 12:44:10;;;;;;;1.80;1.57;;;;;;;;;;5048576;28;20574;-42
2021/04/03 12:46:36;;;;;;;2.57;1.50;;;;;;;;;;5047966;28;20178;-47
2021/04/03 12:49:01;;;;;;;2.27;1.97;;;;;;;;;;5048122;28;20221;-42
2021/04/03 12:51:26;;;;;;;5.10;1.70;;;;;;;;;;5049054;28;20280;-43
2021/04/03 12:53:51;;;;;;;2.33;1.70;;;;;;;;;;5048071;28;20185;-43
2021/04/03 12:56:17;;;;;;;1.60;1.50;;;;;;;;;;5047796;28;20257;-43
2021/04/03 12:58:42;;;;;;;1.77;1.67;;;;;;;;;;5048266;28;20246;-42
2021/04/03 13:01:07;;;;;;;1.60;1.40;;;;;;;;;;5046686;28;20657;-42
2021/04/03 13:03:33;;;;;;;1.57;1.47;;;;;;;;;;5048115;28;20254;-42
2021/04/03 13:05:58;;;;;;;1.37;1.27;;;;;;;;;;5047481;28;20596;-42
2021/04/03 13:08:23;;;;;;;2.07;1.50;;;;;;;;;;5047690;28;20186;-42
2021/04/03 13:10:48;;;;;;;1.63;1.53;;;;;;;;;;5047365;28;20655;-43
2021/04/03 13:13:14;;;;;;;1.63;1.53;;;;;;;;;;5047930;28;20192;-43
2021/04/03 13:15:39;;;;;;;1.60;1.50;;;;;;;;;;5047814;28;20206;-43
2021/04/03 13:18:04;;;;;;;3.15;1.88;;;;;;;;;;5047353;28;20178;-43
2021/04/03 13:20:30;;;;;;;1.73;1.63;;;;;;;;;;5047322;28;20232;-42
2021/04/03 13:22:55;;;;;;;3.30;1.67;;;;;;;;;;5047660;28;20644;-43
2021/04/03 13:25:22;;;;;;;2.40;2.20;;;;;;;;;;5047551;28;20176;-42
2021/04/03 13:27:47;;;;;;;2.10;1.67;;;;;;;;;;5047144;28;20200;-42
2021/04/03 13:30:12;;;;;;;1.73;1.50;;;;;;;;;;5045653;28;20606;-42
2021/04/03 13:32:38;;;;;;;1.67;1.40;;;;;;;;;;5042572;28;20172;-42
2021/04/03 13:35:04;;;;;;;1.53;1.43;;;;;;;;;;5046970;28;20210;-41
2021/04/03 13:37:29;;;;;;;1.93;1.70;;;;;;;;;;5046834;28;20259;-41
2021/04/03 13:39:55;;;;;;;1.53;1.30;;;;;;;;;;5046950;28;21238;-42
2021/04/03 13:42:21;;;;;;;1.70;1.60;;;;;;;;;;5047123;28;20181;-42
2021/04/03 13:44:46;;;;;;;1.90;1.80;;;;;;;;;;5046752;28;21176;-42
2021/04/03 13:47:11;;;;;;;4.15;1.55;;;;;;;;;;5046886;28;20205;-43
2021/04/03 13:49:36;;;;;;;2.60;1.90;;;;;;;;;;5046757;28;20177;-42
2021/04/03 13:52:01;;;;;;;2.03;1.70;;;;;;;;;;5046607;28;20169;-42
2021/04/03 13:54:27;;;;;;;1.27;1.27;;;;;;;;;;5047645;28;20229;-42
2021/04/03 13:56:52;;;;;;;2.10;1.90;;;;;;;;;;5046659;28;20618;-41
2021/04/03 13:59:17;;;;;;;1.50;1.40;;;;;;;;;;5046129;28;20648;-42
2021/04/03 14:01:42;;;;;;;2.90;1.55;;;;;;;;;;5046156;28;20181;-42
2021/04/03 14:04:07;;;;;;;2.83;1.70;;;;;;;;;;5046358;28;20172;-42
2021/04/03 14:06:32;;;;;;;2.40;1.90;;;;;;;;;;5045958;28;20194;-42
2021/04/03 14:08:58;;;;;;;3.70;2.00;;;;;;;;;;5046878;28;20198;-42
2021/04/03 14:11:23;;;;;;;1.60;1.40;;;;;;;;;;5046721;28;20173;-43
2021/04/03 14:13:48;;;;;;;3.17;1.70;;;;;;;;;;5050934;28;20178;-42
2021/04/03 14:16:13;;;;;;;2.20;1.50;;;;;;;;;;5050536;28;20205;-42
2021/04/03 14:18:38;;;;;;;2.97;1.70;;;;;;;;;;5050825;28;20211;-43
2021/04/03 14:21:04;;;;;;;1.50;1.45;;;;;;;;;;5050253;28;20172;-42
2021/04/03 14:23:29;;;;;;;1.83;1.73;;;;;;;;;;5042298;28;20176;-43
2021/04/03 14:25:55;;;;;;;1.80;1.60;;;;;;;;;;5050431;28;20179;-43